createdAt,value
2023-03-10T00:01:23.416Z,95575.88
2023-03-10T00:03:52.135Z,95575.03
2023-03-10T00:06:22.412Z,95575.22
2023-03-10T00:08:51.465Z,95560.41
2023-03-10T00:11:21.952Z,95559.00
2023-03-10T00:13:50.846Z,95543.81
2023-03-10T00:16:23.429Z,95551.44
2023-03-10T00:18:53.479Z,95557.44
2023-03-10T00:21:24.600Z,95548.50
2023-03-10T00:23:53.727Z,95549.09
2023-03-10T00:26:26.241Z,95541.03
2023-03-10T00:28:55.621Z,95551.06
2023-03-10T00:31:26.605Z,95544.66
2023-03-10T00:33:57.556Z,95539.38
2023-03-10T00:36:27.610Z,95537.22
2023-03-10T00:38:57.917Z,95537.47
2023-03-10T00:41:30.836Z,95514.56
2023-03-10T00:44:00.182Z,95531.09
2023-03-10T00:46:30.022Z,95530.59
2023-03-10T00:48:58.925Z,95517.19
2023-03-10T00:51:28.104Z,95518.72
2023-03-10T00:53:56.555Z,95516.03
2023-03-10T00:56:27.615Z,95507.19
2023-03-10T00:59:00.402Z,95511.25
2023-03-10T01:01:31.180Z,95507.38
2023-03-10T01:04:02.919Z,95485.38
2023-03-10T01:06:32.257Z,95500.28
2023-03-10T01:09:03.197Z,95490.19
2023-03-10T01:11:33.227Z,95473.31
2023-03-10T01:14:05.926Z,95487.59
2023-03-10T01:16:35.368Z,95495.91
2023-03-10T01:19:04.223Z,95489.09
2023-03-10T01:21:34.132Z,95455.69
2023-03-10T01:24:04.048Z,95479.69
2023-03-10T01:26:32.846Z,95470.00
2023-03-10T01:29:02.742Z,95449.50
2023-03-10T01:31:31.557Z,95469.53
2023-03-10T01:34:00.250Z,95461.44
2023-03-10T01:36:29.212Z,95447.63
2023-03-10T01:39:01.077Z,95457.56
2023-03-10T01:41:29.485Z,95445.75
2023-03-10T01:43:59.373Z,95443.19
2023-03-10T01:46:49.531Z,95423.25
2023-03-10T01:49:24.421Z,95436.63
2023-03-10T01:51:56.671Z,95427.41
2023-03-10T01:54:30.568Z,95430.19
2023-03-10T01:57:00.087Z,95426.69
2023-03-10T01:59:30.744Z,95405.41
2023-03-10T02:02:02.948Z,95402.22
2023-03-10T02:04:38.865Z,95403.50
2023-03-10T02:07:09.599Z,95396.25
2023-03-10T02:09:43.189Z,95394.91
2023-03-10T02:12:14.331Z,95387.31
2023-03-10T02:14:46.259Z,95377.25
2023-03-10T02:17:19.769Z,95362.72
2023-03-10T02:20:26.668Z,95354.75
2023-03-10T02:22:55.251Z,95357.03
2023-03-10T02:25:34.176Z,95344.66
2023-03-10T02:28:05.115Z,95355.59
2023-03-10T02:30:37.192Z,95348.81
2023-03-10T02:33:09.117Z,95333.16
2023-03-10T02:35:38.180Z,95330.16
2023-03-10T02:38:07.042Z,95342.19
2023-03-10T02:40:38.015Z,95341.00
2023-03-10T02:43:15.155Z,95338.00
2023-03-10T02:45:46.941Z,95341.66
2023-03-10T02:48:20.187Z,95336.94
2023-03-10T02:50:49.475Z,95314.03
2023-03-10T02:53:20.006Z,95322.94
2023-03-10T02:55:48.520Z,95315.97
2023-03-10T02:58:19.046Z,95313.19
2023-03-10T03:00:49.478Z,95306.84
2023-03-10T03:03:20.400Z,95284.81
2023-03-10T03:05:49.503Z,95307.75
2023-03-10T03:08:18.605Z,95294.63
2023-03-10T03:10:47.762Z,95282.28
2023-03-10T03:13:18.220Z,95290.56
2023-03-10T03:15:46.978Z,95297.28
2023-03-10T03:18:15.458Z,95290.50
2023-03-10T03:20:44.282Z,95293.34
2023-03-10T03:23:12.836Z,95285.44
2023-03-10T03:25:43.368Z,95276.81
2023-03-10T03:28:13.715Z,95271.41
2023-03-10T03:30:46.180Z,95273.84
2023-03-10T03:33:14.652Z,95266.56
2023-03-10T03:35:45.153Z,95263.72
2023-03-10T03:38:14.014Z,95278.88
2023-03-10T03:40:42.452Z,95274.13
2023-03-10T03:43:13.990Z,95274.00
2023-03-10T03:45:43.429Z,95259.53
2023-03-10T03:48:14.996Z,95255.03
2023-03-10T03:50:43.229Z,95267.94
2023-03-10T03:53:13.400Z,95262.38
2023-03-10T03:55:41.988Z,95258.97
2023-03-10T03:58:10.359Z,95259.81
2023-03-10T04:00:40.506Z,95251.91
2023-03-10T04:03:11.379Z,95256.84
2023-03-10T04:05:39.720Z,95247.41
2023-03-10T04:08:08.910Z,95258.75
2023-03-10T04:10:37.815Z,95242.91
2023-03-10T04:13:06.561Z,95259.03
2023-03-10T04:15:35.655Z,95249.00
2023-03-10T04:18:04.241Z,95246.00
2023-03-10T04:20:33.943Z,95246.66
2023-03-10T04:23:02.305Z,95242.22
2023-03-10T04:25:30.712Z,95250.00
2023-03-10T04:27:59.314Z,95241.34
2023-03-10T04:30:30.706Z,95239.25
2023-03-10T04:33:00.562Z,95246.16
2023-03-10T04:35:29.572Z,95240.47
2023-03-10T04:37:59.689Z,95228.38
2023-03-10T04:40:27.853Z,95236.09
2023-03-10T04:42:56.971Z,95246.06
2023-03-10T04:45:25.383Z,95214.72
2023-03-10T04:47:53.750Z,95246.66
2023-03-10T04:50:21.863Z,95231.44
2023-03-10T04:52:50.807Z,95247.41
2023-03-10T04:55:20.508Z,95256.88
2023-03-10T04:57:48.996Z,95258.72
2023-03-10T05:00:17.756Z,95261.22
2023-03-10T05:02:45.837Z,95249.56
2023-03-10T05:05:13.844Z,95250.28
2023-03-10T05:07:42.390Z,95256.75
2023-03-10T05:10:12.314Z,95247.50
2023-03-10T05:12:42.738Z,95257.88
2023-03-10T05:15:12.033Z,95255.69
2023-03-10T05:17:40.702Z,95252.28
2023-03-10T05:20:10.465Z,95257.16
2023-03-10T05:22:39.576Z,95251.31
2023-03-10T05:25:09.339Z,95231.22
2023-03-10T05:27:39.454Z,95240.59
2023-03-10T05:30:11.743Z,95255.19
2023-03-10T05:32:40.388Z,95250.09
2023-03-10T05:35:09.356Z,95253.50
2023-03-10T05:37:39.488Z,95250.34
2023-03-10T05:40:10.054Z,95253.16
2023-03-10T05:42:38.538Z,95256.09
2023-03-10T05:45:10.024Z,95263.94
2023-03-10T05:47:39.017Z,95261.50
2023-03-10T05:50:08.116Z,95264.44
2023-03-10T05:52:38.499Z,95266.69
2023-03-10T05:55:09.476Z,95260.84
2023-03-10T05:57:37.539Z,95257.66
2023-03-10T06:00:11.152Z,95264.44
2023-03-10T06:02:39.526Z,95259.72
2023-03-10T06:05:11.313Z,95252.16
2023-03-10T06:07:40.134Z,95249.25
2023-03-10T06:10:09.783Z,95253.31
2023-03-10T06:12:38.861Z,95252.16
2023-03-10T06:15:10.722Z,95258.94
2023-03-10T06:17:39.618Z,95256.16
2023-03-10T06:20:09.558Z,95266.22
2023-03-10T06:22:42.179Z,95262.50
2023-03-10T06:25:12.120Z,95254.88
2023-03-10T06:27:40.471Z,95261.16
2023-03-10T06:30:12.685Z,95255.41
2023-03-10T06:32:42.342Z,95243.78
2023-03-10T06:35:14.921Z,95244.38
2023-03-10T06:37:43.780Z,95243.72
2023-03-10T06:40:18.572Z,95248.59
2023-03-10T06:42:47.224Z,95215.53
2023-03-10T06:45:18.908Z,95239.38
2023-03-10T06:47:47.220Z,95241.47
2023-03-10T06:50:15.550Z,95237.09
2023-03-10T06:52:44.316Z,95246.75
2023-03-10T06:55:13.793Z,95246.28
2023-03-10T06:57:42.218Z,95234.47
2023-03-10T07:00:16.250Z,95243.03
2023-03-10T07:02:46.319Z,95237.66
2023-03-10T07:05:15.506Z,95238.88
2023-03-10T07:07:47.601Z,95245.72
2023-03-10T07:10:17.221Z,95240.72
2023-03-10T07:12:46.071Z,95241.13
2023-03-10T07:15:15.237Z,95227.56
2023-03-10T07:17:43.805Z,95235.41
2023-03-10T07:20:15.113Z,95233.06
2023-03-10T07:22:43.437Z,95243.16
2023-03-10T07:25:11.982Z,95236.47
2023-03-10T07:27:40.693Z,95246.09
2023-03-10T07:30:10.584Z,95240.00
2023-03-10T07:32:39.148Z,95260.75
2023-03-10T07:35:09.290Z,95247.44
2023-03-10T07:37:41.750Z,95252.91
2023-03-10T07:40:12.906Z,95265.47
2023-03-10T07:42:40.889Z,95251.38
2023-03-10T07:45:10.435Z,95247.22
2023-03-10T07:47:39.594Z,95249.03
2023-03-10T07:50:09.315Z,95248.44
2023-03-10T07:52:48.171Z,95236.53
2023-03-10T07:55:28.516Z,95246.56
2023-03-10T07:57:58.794Z,95237.16
2023-03-10T08:00:28.481Z,95240.28
2023-03-10T08:02:56.565Z,95232.25
2023-03-10T08:05:25.689Z,95230.50
2023-03-10T08:07:57.278Z,95232.97
2023-03-10T08:10:25.897Z,95239.16
2023-03-10T08:12:56.429Z,95233.50
2023-03-10T08:15:27.127Z,95234.53
2023-03-10T08:17:55.829Z,95230.47
2023-03-10T08:20:27.810Z,95227.81
